createdAt,value
2019-02-12T00:02:10.221Z,3.10
2019-02-12T00:04:40.517Z,3.20
2019-02-12T00:07:10.837Z,3.10
2019-02-12T00:09:41.105Z,2.90
2019-02-12T00:12:11.341Z,3.20
2019-02-12T00:14:41.600Z,3.20
2019-02-12T00:17:11.858Z,3.00
2019-02-12T00:19:42.149Z,3.10
2019-02-12T00:22:12.389Z,3.00
2019-02-12T00:24:42.650Z,2.80
2019-02-12T00:27:12.943Z,3.10
2019-02-12T00:29:43.157Z,2.80
2019-02-12T00:32:13.466Z,2.90
2019-02-12T00:34:43.715Z,2.90
2019-02-12T00:37:13.978Z,2.90
2019-02-12T00:39:44.222Z,2.80
2019-02-12T00:42:14.505Z,2.80
2019-02-12T00:44:44.762Z,2.60
2019-02-12T00:47:15.064Z,2.70
2019-02-12T00:49:45.316Z,2.60
2019-02-12T00:52:15.590Z,2.70
2019-02-12T00:54:45.826Z,2.60
2019-02-12T00:57:16.114Z,2.80
2019-02-12T00:59:46.349Z,2.50
2019-02-12T01:02:16.640Z,2.20
2019-02-12T01:04:50.226Z,2.50
2019-02-12T01:07:20.495Z,2.50
2019-02-12T01:09:50.838Z,2.40
2019-02-12T01:12:21.101Z,2.20
2019-02-12T01:14:51.371Z,2.20
2019-02-12T01:17:21.660Z,2.30
2019-02-12T01:19:51.906Z,2.40
2019-02-12T01:22:22.161Z,2.40
2019-02-12T01:24:52.462Z,2.30
2019-02-12T01:27:22.735Z,2.20
2019-02-12T01:29:52.986Z,2.00
2019-02-12T01:32:23.253Z,2.20
2019-02-12T01:34:53.613Z,2.00
2019-02-12T01:37:23.873Z,2.10
2019-02-12T01:39:54.185Z,2.00
2019-02-12T01:42:24.525Z,1.90
2019-02-12T01:44:54.762Z,2.10
2019-02-12T01:47:25.079Z,1.80
2019-02-12T01:49:55.397Z,2.10
2019-02-12T01:52:25.664Z,1.90
2019-02-12T01:54:55.969Z,2.00
2019-02-12T01:57:26.226Z,2.10
2019-02-12T01:59:56.530Z,2.10
2019-02-12T02:02:26.770Z,2.00
2019-02-12T02:04:57.017Z,2.00
2019-02-12T02:07:27.271Z,2.10
2019-02-12T02:09:57.565Z,2.10
2019-02-12T02:12:27.897Z,2.00
2019-02-12T02:14:58.163Z,2.00
2019-02-12T02:17:28.420Z,2.00
2019-02-12T02:19:58.736Z,2.20
2019-02-12T02:22:29.042Z,2.00
2019-02-12T02:24:59.324Z,2.30
2019-02-12T02:27:29.586Z,2.30
2019-02-12T02:29:59.853Z,2.00
2019-02-12T02:32:30.145Z,2.20
2019-02-12T02:35:00.468Z,1.90
2019-02-12T02:37:30.705Z,1.90
2019-02-12T02:40:00.963Z,2.20
2019-02-12T02:42:31.189Z,2.20
2019-02-12T02:45:01.477Z,2.00
2019-02-12T02:47:31.721Z,2.10
2019-02-12T02:50:03.452Z,1.80
2019-02-12T02:52:33.841Z,2.00
2019-02-12T02:55:04.170Z,2.00
2019-02-12T02:57:34.414Z,2.20
2019-02-12T03:00:06.348Z,1.90
2019-02-12T03:02:36.647Z,2.10
2019-02-12T03:05:08.209Z,2.10
2019-02-12T03:07:38.434Z,1.90
2019-02-12T03:10:09.076Z,2.20
2019-02-12T03:12:39.322Z,1.90
2019-02-12T03:15:10.412Z,2.30
2019-02-12T03:17:40.695Z,2.20
2019-02-12T03:20:11.893Z,2.00
2019-02-12T03:22:42.169Z,2.10
2019-02-12T03:25:12.555Z,2.20
2019-02-12T03:27:42.803Z,2.20
2019-02-12T03:30:13.502Z,2.10
2019-02-12T03:32:43.782Z,2.20
2019-02-12T03:35:14.010Z,2.20
2019-02-12T03:37:44.278Z,2.20
2019-02-12T03:40:14.522Z,2.40
2019-02-12T03:43:03.735Z,2.20
2019-02-12T03:45:33.988Z,2.20
2019-02-12T03:48:04.250Z,2.30
2019-02-12T03:50:34.475Z,2.10
2019-02-12T03:53:04.725Z,2.10
2019-02-12T03:55:35.036Z,2.30
2019-02-12T03:58:05.269Z,2.20
2019-02-12T04:00:35.653Z,2.20
2019-02-12T04:03:07.569Z,2.10
2019-02-12T04:05:38.953Z,2.10
2019-02-12T04:08:09.437Z,2.10
2019-02-12T04:10:39.677Z,2.10
2019-02-12T04:13:09.935Z,2.30
2019-02-12T04:15:40.199Z,2.10
2019-02-12T04:18:10.576Z,2.30
2019-02-12T04:20:40.829Z,2.30
2019-02-12T04:23:11.093Z,2.10
2019-02-12T04:25:41.344Z,2.00
2019-02-12T04:28:11.603Z,2.20
2019-02-12T04:30:41.853Z,1.90
2019-02-12T04:33:12.081Z,2.20
2019-02-12T04:35:42.378Z,2.20
2019-02-12T04:38:12.629Z,2.20
2019-02-12T04:40:42.935Z,2.00
2019-02-12T04:43:13.177Z,1.90
2019-02-12T04:45:43.453Z,2.20
2019-02-12T04:48:13.712Z,2.00
2019-02-12T04:50:43.945Z,2.10
2019-02-12T04:53:14.238Z,1.90
2019-02-12T04:55:44.523Z,2.00
2019-02-12T04:58:14.767Z,2.00
2019-02-12T05:00:45.046Z,2.00
2019-02-12T05:03:15.321Z,1.90
2019-02-12T05:05:45.599Z,1.80
2019-02-12T05:08:15.879Z,1.90
2019-02-12T05:10:59.900Z,1.80
2019-02-12T05:13:30.162Z,1.80
2019-02-12T05:16:00.394Z,1.80
2019-02-12T05:18:30.689Z,1.90
2019-02-12T05:21:00.957Z,1.90
2019-02-12T05:23:31.246Z,1.90
2019-02-12T05:26:01.529Z,1.90
2019-02-12T05:28:31.776Z,1.90
2019-02-12T05:31:02.029Z,2.00
2019-02-12T05:33:32.298Z,2.00
2019-02-12T05:36:02.574Z,1.80
2019-02-12T05:38:32.845Z,1.90
2019-02-12T05:41:03.138Z,1.70
2019-02-12T05:43:33.441Z,1.80
2019-02-12T05:46:03.712Z,1.80
2019-02-12T05:48:34.041Z,1.80
2019-02-12T05:51:04.272Z,1.70
2019-02-12T05:53:34.520Z,1.90
2019-02-12T05:56:04.803Z,1.90
2019-02-12T05:58:35.034Z,1.90
2019-02-12T06:01:05.286Z,1.90
2019-02-12T06:03:35.517Z,1.90
2019-02-12T06:06:05.785Z,1.90
2019-02-12T06:08:36.023Z,1.80
2019-02-12T06:11:06.292Z,1.90
2019-02-12T06:13:36.525Z,2.00
2019-02-12T06:16:06.835Z,1.90
2019-02-12T06:18:37.061Z,2.10
2019-02-12T06:21:07.338Z,2.20
2019-02-12T06:23:37.618Z,2.00
2019-02-12T06:26:07.862Z,2.00
2019-02-12T06:28:38.117Z,2.30
2019-02-12T06:31:08.350Z,2.50
2019-02-12T06:33:38.601Z,2.40
2019-02-12T06:36:08.828Z,2.40
2019-02-12T06:38:39.112Z,2.20
2019-02-12T06:41:09.357Z,2.60
2019-02-12T06:43:39.645Z,2.40
2019-02-12T06:46:09.982Z,2.30
2019-02-12T06:48:40.225Z,2.30
2019-02-12T06:51:10.469Z,2.60
2019-02-12T06:53:40.742Z,2.60
2019-02-12T06:56:11.013Z,2.70
2019-02-12T06:58:41.269Z,2.50
2019-02-12T07:01:11.564Z,2.40
2019-02-12T07:04:09.446Z,2.60
2019-02-12T07:07:22.503Z,2.50
2019-02-12T07:10:23.733Z,2.50
2019-02-12T07:13:33.011Z,2.50
2019-02-12T07:16:48.590Z,2.50
2019-02-12T07:19:31.427Z,2.50
2019-02-12T07:22:27.214Z,2.60
2019-02-12T07:25:25.827Z,2.70
2019-02-12T07:28:16.849Z,2.50
2019-02-12T07:31:25.177Z,2.60
2019-02-12T07:34:42.184Z,2.60
2019-02-12T07:37:33.881Z,2.80
2019-02-12T07:40:56.309Z,2.80
2019-02-12T07:44:28.639Z,2.70
2019-02-12T07:47:35.450Z,2.80
2019-02-12T07:50:48.619Z,3.00
2019-02-12T07:53:56.849Z,2.90
2019-02-12T07:56:47.837Z,2.90
2019-02-12T07:59:47.933Z,2.90
2019-02-12T08:02:56.018Z,2.90
2019-02-12T08:05:52.611Z,3.30
2019-02-12T08:08:58.337Z,3.00
2019-02-12T08:11:57.082Z,2.90
2019-02-12T08:15:13.417Z,3.00
2019-02-12T08:18:20.926Z,3.10
2019-02-12T08:21:37.277Z,2.90
2019-02-12T08:24:45.065Z,3.00
2019-02-12T08:27:39.664Z,3.20
2019-02-12T08:30:34.118Z,3.30
2019-02-12T08:33:54.322Z,2.90
2019-02-12T08:37:01.449Z,3.20
2019-02-12T08:39:58.259Z,3.40
2019-02-12T08:43:05.448Z,3.30
2019-02-12T08:46:28.543Z,3.30
2019-02-12T08:49:54.614Z,3.40
2019-02-12T08:53:01.481Z,3.60
2019-02-12T08:56:21.752Z,3.40
2019-02-12T08:59:23.017Z,3.80
2019-02-12T09:02:31.601Z,3.80
2019-02-12T09:05:38.598Z,4.00
2019-02-12T09:08:34.605Z,3.80
2019-02-12T09:11:49.809Z,3.80
2019-02-12T09:14:46.561Z,4.10
2019-02-12T09:17:58.524Z,4.20
2019-02-12T09:21:12.690Z,3.90
2019-02-12T09:24:21.965Z,3.80
2019-02-12T09:27:23.169Z,3.90
2019-02-12T09:30:18.869Z,3.70
2019-02-12T09:33:13.626Z,4.10
2019-02-12T09:36:00.101Z,3.70
2019-02-12T09:39:29.444Z,3.90
2019-02-12T09:42:24.890Z,3.90
2019-02-12T09:45:15.260Z,4.20
2019-02-12T09:48:19.643Z,4.30
2019-02-12T09:51:21.659Z,4.30
2019-02-12T09:54:13.448Z,4.00
2019-02-12T09:57:06.896Z,4.20
2019-02-12T10:00:17.566Z,4.10
2019-02-12T10:03:15.881Z,3.90
2019-02-12T10:06:11.003Z,4.00
2019-02-12T10:09:31.529Z,4.10
2019-02-12T10:12:29.988Z,3.80
2019-02-12T10:15:40.136Z,3.60
2019-02-12T10:18:56.653Z,3.60
2019-02-12T10:22:12.777Z,3.40
2019-02-12T10:25:36.019Z,3.90
2019-02-12T10:28:48.815Z,4.10
2019-02-12T10:31:44.363Z,4.40
2019-02-12T10:34:14.646Z,4.10
2019-02-12T10:36:45.085Z,4.10
2019-02-12T10:39:16.041Z,4.40
2019-02-12T10:41:46.308Z,4.30
2019-02-12T10:44:16.521Z,4.00
2019-02-12T10:46:46.802Z,4.10
2019-02-12T10:49:17.101Z,4.00
2019-02-12T10:51:47.353Z,3.80
2019-02-12T10:54:17.658Z,3.60
2019-02-12T10:56:49.850Z,3.50
2019-02-12T10:59:20.098Z,3.70
2019-02-12T11:01:50.370Z,3.90
2019-02-12T11:04:21.632Z,3.90
2019-02-12T11:06:51.905Z,4.10
2019-02-12T11:09:22.199Z,4.10
2019-02-12T11:11:52.574Z,3.90
2019-02-12T11:14:22.833Z,3.70
2019-02-12T11:16:53.139Z,3.70
2019-02-12T11:19:23.377Z,3.70
2019-02-12T11:21:53.718Z,3.60
2019-02-12T11:24:23.973Z,3.80
2019-02-12T11:26:54.216Z,4.00
2019-02-12T11:29:24.481Z,4.10
2019-02-12T11:31:54.857Z,4.10
2019-02-12T11:34:25.113Z,4.10
2019-02-12T11:36:55.350Z,4.10
2019-02-12T11:39:25.607Z,3.70
2019-02-12T11:41:55.891Z,4.00
2019-02-12T11:44:26.181Z,4.20
2019-02-12T11:46:56.477Z,4.20
2019-02-12T11:49:26.765Z,4.20
2019-02-12T11:51:57.090Z,4.40
2019-02-12T11:54:27.359Z,4.20
2019-02-12T11:56:57.691Z,4.20
2019-02-12T11:59:27.998Z,4.30
2019-02-12T12:01:58.317Z,4.00
2019-02-12T12:04:28.614Z,4.10
2019-02-12T12:06:58.869Z,4.30
2019-02-12T12:09:29.115Z,4.40
2019-02-12T12:11:59.382Z,4.20
2019-02-12T12:14:29.721Z,4.40
2019-02-12T12:17:00.008Z,4.60
2019-02-12T12:19:30.289Z,4.60
2019-02-12T12:22:00.579Z,4.30
2019-02-12T12:24:30.831Z,4.40
2019-02-12T12:27:01.113Z,4.70
2019-02-12T12:29:31.364Z,4.40
2019-02-12T12:32:01.773Z,4.20
2019-02-12T12:34:32.036Z,4.40
2019-02-12T12:37:02.281Z,4.40
2019-02-12T12:39:32.553Z,4.20
2019-02-12T12:42:02.802Z,4.10
2019-02-12T12:44:33.137Z,3.80
2019-02-12T12:47:03.481Z,3.90
2019-02-12T12:49:33.741Z,3.80
2019-02-12T12:52:04.005Z,3.80
2019-02-12T12:54:34.290Z,4.30
2019-02-12T12:57:04.540Z,4.10
2019-02-12T12:59:34.837Z,3.90
2019-02-12T13:02:05.092Z,3.90
2019-02-12T13:04:35.369Z,4.20
2019-02-12T13:07:05.663Z,3.70
2019-02-12T13:09:35.959Z,4.00
2019-02-12T13:12:06.220Z,3.70
2019-02-12T13:14:36.544Z,3.70
2019-02-12T13:17:06.815Z,3.90
2019-02-12T13:19:37.108Z,3.60
2019-02-12T13:22:07.376Z,3.80
2019-02-12T13:24:37.685Z,3.80
2019-02-12T13:27:07.909Z,4.00
2019-02-12T13:29:38.246Z,4.30
2019-02-12T13:32:08.513Z,4.20
2019-02-12T13:34:38.766Z,4.20
2019-02-12T13:37:09.233Z,4.30
2019-02-12T13:39:39.486Z,4.30
2019-02-12T13:42:09.759Z,3.90
2019-02-12T13:44:40.060Z,3.50
2019-02-12T13:47:10.333Z,3.20
2019-02-12T13:49:40.670Z,3.50
2019-02-12T13:52:10.957Z,3.30
2019-02-12T13:54:41.224Z,3.20
2019-02-12T13:57:11.560Z,3.20
2019-02-12T13:59:41.801Z,2.90
2019-02-12T14:02:12.561Z,3.30
2019-02-12T14:04:42.843Z,2.90
2019-02-12T14:07:13.122Z,2.70
2019-02-12T14:09:43.402Z,2.60
2019-02-12T14:12:13.726Z,2.40
2019-02-12T14:14:43.962Z,2.50
2019-02-12T14:17:14.213Z,2.50
2019-02-12T14:19:44.577Z,2.40
2019-02-12T14:22:14.809Z,2.40
2019-02-12T14:24:45.061Z,2.30
2019-02-12T14:27:15.305Z,2.20
2019-02-12T14:29:45.594Z,2.40
2019-02-12T14:32:15.888Z,2.30
2019-02-12T14:34:46.158Z,2.40
2019-02-12T14:37:16.465Z,2.40
2019-02-12T14:39:46.809Z,2.50
2019-02-12T14:42:17.106Z,2.60
2019-02-12T14:44:47.452Z,2.20
2019-02-12T14:47:17.709Z,2.10
2019-02-12T14:49:47.997Z,2.30
2019-02-12T14:52:18.251Z,2.00
2019-02-12T14:54:48.573Z,2.00
2019-02-12T14:57:18.855Z,1.90
2019-02-12T14:59:49.162Z,2.10
2019-02-12T15:02:19.417Z,2.10
2019-02-12T15:04:49.719Z,1.80
2019-02-12T15:07:19.961Z,1.50
2019-02-12T15:09:50.225Z,1.60
2019-02-12T15:12:20.525Z,1.50
2019-02-12T15:14:50.811Z,1.50
2019-02-12T15:17:21.097Z,1.60
2019-02-12T15:19:51.423Z,1.40
2019-02-12T15:22:21.684Z,1.60
2019-02-12T15:24:52.062Z,1.40
2019-02-12T15:27:22.321Z,1.30
2019-02-12T15:29:52.642Z,1.30
2019-02-12T15:32:22.953Z,1.30
2019-02-12T15:34:53.212Z,1.10
2019-02-12T15:37:23.549Z,1.20
2019-02-12T15:39:55.951Z,0.90
2019-02-12T15:42:26.493Z,1.00
2019-02-12T15:44:56.841Z,0.90
2019-02-12T15:47:27.084Z,1.00
2019-02-12T15:49:57.442Z,0.90
2019-02-12T15:52:27.741Z,0.60
2019-02-12T15:54:58.012Z,0.70
2019-02-12T15:57:28.310Z,0.70
2019-02-12T15:59:58.640Z,0.60
2019-02-12T16:02:28.961Z,0.70
2019-02-12T16:04:59.237Z,0.70
2019-02-12T16:07:29.545Z,0.60
2019-02-12T16:09:59.798Z,0.60
2019-02-12T16:12:30.181Z,0.40
2019-02-12T16:15:01.527Z,0.50
2019-02-12T16:17:32.317Z,0.30
2019-02-12T16:20:02.589Z,0.50
2019-02-12T16:22:32.913Z,0.40
2019-02-12T16:25:05.889Z,0.50
2019-02-12T16:27:36.178Z,0.40
2019-02-12T16:30:08.638Z,0.30
2019-02-12T16:32:38.956Z,0.40
2019-02-12T16:35:10.627Z,0.30
2019-02-12T16:37:40.894Z,0.20
2019-02-12T16:40:12.000Z,0.30
2019-02-12T16:42:42.354Z,0.40
2019-02-12T16:45:15.353Z,0.50
2019-02-12T16:47:45.661Z,0.20
2019-02-12T16:50:15.965Z,0.40
2019-02-12T16:52:46.225Z,0.40
2019-02-12T16:55:16.609Z,0.30
2019-02-12T16:57:46.981Z,0.40
2019-02-12T17:00:18.922Z,0.40
2019-02-12T17:02:49.185Z,0.10
2019-02-12T17:05:19.450Z,0.10
2019-02-12T17:07:49.745Z,0.20
2019-02-12T17:10:19.970Z,0.10
2019-02-12T17:12:50.217Z,0.00
2019-02-12T17:15:20.509Z,0.00
2019-02-12T17:17:50.777Z,0.00
2019-02-12T17:20:21.193Z,0.20
2019-02-12T17:22:51.442Z,0.20
2019-02-12T17:25:21.816Z,0.10
2019-02-12T17:27:52.064Z,-0.10
2019-02-12T17:30:22.355Z,0.10
2019-02-12T17:32:52.629Z,0.00
2019-02-12T17:35:22.923Z,-0.20
2019-02-12T17:37:53.196Z,-0.20
2019-02-12T17:40:23.502Z,-0.30
2019-02-12T17:42:53.747Z,-0.20
2019-02-12T17:45:24.017Z,-0.10
2019-02-12T17:47:54.278Z,-0.30
2019-02-12T17:50:24.557Z,-0.30
2019-02-12T17:52:54.820Z,-0.50
2019-02-12T17:55:25.110Z,-0.10
2019-02-12T17:57:55.349Z,-0.50
2019-02-12T18:00:29.689Z,-0.20
2019-02-12T18:02:59.969Z,-0.10
2019-02-12T18:05:30.244Z,-0.50
2019-02-12T18:08:00.493Z,-0.50
2019-02-12T18:10:30.752Z,-0.20
2019-02-12T18:13:01.096Z,-0.20
2019-02-12T18:15:31.364Z,-0.40
2019-02-12T18:18:01.643Z,-0.10
2019-02-12T18:20:31.958Z,-0.40
2019-02-12T18:23:02.265Z,-0.30
2019-02-12T18:25:32.646Z,-0.10
2019-02-12T18:28:02.962Z,-0.30
2019-02-12T18:30:33.257Z,-0.10
2019-02-12T18:33:03.543Z,-0.30
2019-02-12T18:35:33.797Z,-0.20
2019-02-12T18:38:04.080Z,-0.10
2019-02-12T18:40:34.365Z,-0.20
2019-02-12T18:43:04.717Z,-0.20
2019-02-12T18:45:34.990Z,-0.20
2019-02-12T18:48:05.265Z,-0.10
2019-02-12T18:50:35.522Z,0.20
2019-02-12T18:53:05.854Z,0.00
2019-02-12T18:55:36.512Z,-0.20
2019-02-12T18:58:06.797Z,-0.10
2019-02-12T19:00:37.264Z,-0.20
2019-02-12T19:03:07.510Z,-0.30
2019-02-12T19:05:37.785Z,-0.20
2019-02-12T19:08:08.049Z,-0.40
2019-02-12T19:10:38.316Z,0.00
2019-02-12T19:13:08.666Z,-0.10
2019-02-12T19:15:38.986Z,-0.30
2019-02-12T19:18:12.437Z,-0.10
2019-02-12T19:20:42.736Z,0.00
2019-02-12T19:23:13.042Z,0.00
2019-02-12T19:25:43.330Z,-0.10
2019-02-12T19:28:13.661Z,0.00
2019-02-12T19:30:43.962Z,0.10
2019-02-12T19:33:14.251Z,0.40
2019-02-12T19:35:44.610Z,0.60
2019-02-12T19:38:14.906Z,0.50
2019-02-12T19:40:45.153Z,0.30
2019-02-12T19:43:15.623Z,0.50
2019-02-12T19:45:45.961Z,0.40
2019-02-12T19:48:16.215Z,0.60
2019-02-12T19:50:46.452Z,0.40
2019-02-12T19:53:16.693Z,0.50
2019-02-12T19:55:46.969Z,0.10
2019-02-12T19:58:17.278Z,0.10
2019-02-12T20:00:47.542Z,0.20
2019-02-12T20:03:17.825Z,0.10
2019-02-12T20:05:48.111Z,0.30
2019-02-12T20:08:18.338Z,0.30
2019-02-12T20:10:48.633Z,0.20
2019-02-12T20:13:18.894Z,0.10
2019-02-12T20:15:49.153Z,0.20
2019-02-12T20:18:19.449Z,0.00
2019-02-12T20:20:49.707Z,0.30
2019-02-12T20:23:19.991Z,0.30
2019-02-12T20:25:50.287Z,0.10
2019-02-12T20:28:20.539Z,0.10
2019-02-12T20:30:50.801Z,0.10
2019-02-12T20:33:21.135Z,0.20
2019-02-12T20:35:51.423Z,0.10
2019-02-12T20:38:21.697Z,0.30
2019-02-12T20:40:52.043Z,0.40
2019-02-12T20:43:22.295Z,0.40
2019-02-12T20:45:52.521Z,0.40
2019-02-12T20:48:22.814Z,0.60
2019-02-12T20:50:53.105Z,0.60
2019-02-12T20:53:23.381Z,0.70
2019-02-12T20:55:53.685Z,0.90
2019-02-12T20:58:23.922Z,0.80
2019-02-12T21:00:54.201Z,1.00
2019-02-12T21:03:24.465Z,1.00
2019-02-12T21:05:54.774Z,1.30
2019-02-12T21:08:25.015Z,1.40
2019-02-12T21:10:55.787Z,1.20
2019-02-12T21:13:26.095Z,1.20
2019-02-12T21:15:56.370Z,1.40
2019-02-12T21:18:26.673Z,1.20
2019-02-12T21:20:56.970Z,1.20
2019-02-12T21:23:27.281Z,1.50
2019-02-12T21:25:57.874Z,1.30
2019-02-12T21:28:28.153Z,1.00
2019-02-12T21:30:58.437Z,1.00
2019-02-12T21:33:28.709Z,1.10
2019-02-12T21:35:59.029Z,0.70
2019-02-12T21:38:29.418Z,0.50
2019-02-12T21:40:59.725Z,0.30
2019-02-12T21:43:30.377Z,0.20
2019-02-12T21:46:00.778Z,0.30
2019-02-12T21:48:31.154Z,0.20
2019-02-12T21:51:01.532Z,-0.30
2019-02-12T21:53:31.937Z,-0.20
2019-02-12T21:56:03.865Z,-0.40
2019-02-12T21:58:34.266Z,-0.50
2019-02-12T22:01:04.685Z,-0.40
2019-02-12T22:03:34.974Z,-0.60
2019-02-12T22:06:05.233Z,-0.70
2019-02-12T22:08:35.493Z,-0.50
2019-02-12T22:11:05.955Z,-0.50
2019-02-12T22:13:36.225Z,-0.30
2019-02-12T22:16:06.486Z,-0.30
2019-02-12T22:18:36.737Z,-0.50
2019-02-12T22:21:07.015Z,-0.20
2019-02-12T22:23:37.273Z,-0.10
2019-02-12T22:26:07.549Z,0.20
2019-02-12T22:28:37.794Z,0.30
2019-02-12T22:31:08.129Z,0.40
2019-02-12T22:33:38.495Z,0.60
2019-02-12T22:36:08.769Z,0.70
2019-02-12T22:38:39.083Z,0.70
2019-02-12T22:41:09.409Z,0.30
2019-02-12T22:43:39.665Z,0.50
2019-02-12T22:46:09.910Z,0.80
2019-02-12T22:48:41.099Z,0.70
2019-02-12T22:51:11.398Z,0.80
2019-02-12T22:53:41.639Z,0.50
2019-02-12T22:56:11.894Z,0.70
2019-02-12T22:58:42.182Z,0.50
2019-02-12T23:01:12.613Z,0.50
2019-02-12T23:03:42.861Z,0.40
2019-02-12T23:06:13.111Z,0.10
2019-02-12T23:08:43.417Z,0.20
2019-02-12T23:11:13.756Z,0.40
2019-02-12T23:13:43.990Z,0.50
2019-02-12T23:16:14.308Z,0.30
2019-02-12T23:18:44.584Z,0.40
2019-02-12T23:21:14.834Z,0.50
2019-02-12T23:23:45.126Z,0.60
2019-02-12T23:26:15.400Z,0.50
2019-02-12T23:28:45.669Z,0.40
2019-02-12T23:31:15.945Z,0.40
2019-02-12T23:33:46.338Z,0.30
2019-02-12T23:36:16.645Z,0.40
2019-02-12T23:38:46.925Z,0.50
2019-02-12T23:41:17.305Z,0.50
2019-02-12T23:43:47.686Z,0.40
2019-02-12T23:46:18.058Z,0.40
2019-02-12T23:48:48.289Z,0.50
2019-02-12T23:51:18.550Z,0.60
2019-02-12T23:53:48.825Z,0.50
2019-02-12T23:56:19.186Z,0.40
2019-02-12T23:58:49.466Z,0.20
